createdAt,value
2018-12-31T00:00:59.987Z,5.61
2018-12-31T00:03:28.644Z,5.60
2018-12-31T00:05:57.113Z,5.59
2018-12-31T00:08:25.732Z,5.60
2018-12-31T00:10:54.311Z,5.57
2018-12-31T00:13:22.787Z,5.58
2018-12-31T00:15:51.248Z,5.52
2018-12-31T00:18:19.823Z,5.48
2018-12-31T00:20:48.332Z,5.45
2018-12-31T00:23:17.214Z,5.48
2018-12-31T00:25:45.635Z,5.50
2018-12-31T00:28:14.486Z,5.53
2018-12-31T00:30:43.379Z,5.50
2018-12-31T00:33:11.801Z,5.50
2018-12-31T00:35:40.497Z,5.51
2018-12-31T00:38:08.935Z,5.54
2018-12-31T00:40:37.392Z,5.52
2018-12-31T00:43:06.041Z,5.51
2018-12-31T00:45:34.497Z,5.48
2018-12-31T00:48:03.035Z,5.49
2018-12-31T00:50:31.497Z,5.48
2018-12-31T00:53:00.055Z,5.48
2018-12-31T00:55:28.813Z,5.48
2018-12-31T00:57:57.314Z,5.48
2018-12-31T01:00:25.792Z,5.48
2018-12-31T01:02:54.343Z,5.46
2018-12-31T01:05:22.872Z,5.46
2018-12-31T01:07:51.735Z,5.44
2018-12-31T01:10:20.279Z,5.42
2018-12-31T01:12:48.819Z,5.45
2018-12-31T01:15:17.396Z,5.45
2018-12-31T01:17:45.872Z,5.43
2018-12-31T01:20:14.657Z,5.41
2018-12-31T01:22:43.178Z,5.36
2018-12-31T01:25:11.723Z,5.34
2018-12-31T01:27:40.286Z,5.32
2018-12-31T01:30:08.890Z,5.31
2018-12-31T01:32:37.362Z,5.34
2018-12-31T01:35:06.188Z,5.34
2018-12-31T01:37:34.971Z,5.32
2018-12-31T01:40:03.526Z,5.32
2018-12-31T01:42:32.018Z,5.33
2018-12-31T01:45:00.542Z,5.31
2018-12-31T01:47:29.031Z,5.32
2018-12-31T01:49:57.799Z,5.31
2018-12-31T01:52:26.272Z,5.30
2018-12-31T01:54:54.688Z,5.31
2018-12-31T01:57:23.181Z,5.29
2018-12-31T01:59:51.661Z,5.29
2018-12-31T02:02:20.101Z,5.26
2018-12-31T02:04:48.582Z,5.26
2018-12-31T02:07:17.071Z,5.28
2018-12-31T02:09:45.546Z,5.27
2018-12-31T02:12:14.334Z,5.28
2018-12-31T02:14:42.846Z,5.31
2018-12-31T02:17:11.335Z,5.29
2018-12-31T02:19:39.871Z,5.30
2018-12-31T02:22:08.393Z,5.33
2018-12-31T02:24:36.858Z,5.31
2018-12-31T02:27:05.740Z,5.33
2018-12-31T02:29:34.157Z,5.33
2018-12-31T02:32:02.700Z,5.31
2018-12-31T02:34:31.487Z,5.32
2018-12-31T02:37:19.295Z,5.33
2018-12-31T02:39:47.681Z,5.34
2018-12-31T02:42:16.168Z,5.35
2018-12-31T02:44:44.983Z,5.37
2018-12-31T02:47:15.173Z,5.36
2018-12-31T02:49:44.117Z,5.36
2018-12-31T02:52:12.620Z,5.33
2018-12-31T02:54:41.187Z,5.35
2018-12-31T02:57:09.658Z,5.36
2018-12-31T02:59:38.536Z,5.37
2018-12-31T03:02:06.995Z,5.36
2018-12-31T03:04:35.540Z,5.37
2018-12-31T03:07:04.085Z,5.35
2018-12-31T03:09:32.540Z,5.37
2018-12-31T03:12:00.999Z,5.37
2018-12-31T03:17:23.833Z,5.36
2018-12-31T03:19:52.300Z,5.34
2018-12-31T03:22:20.823Z,5.34
2018-12-31T03:24:49.438Z,5.35
2018-12-31T03:27:18.151Z,5.36
2018-12-31T03:29:46.813Z,5.36
2018-12-31T03:32:15.329Z,5.35
2018-12-31T03:34:43.825Z,5.29
2018-12-31T03:37:12.312Z,5.27
2018-12-31T03:39:40.749Z,5.25
2018-12-31T03:42:09.768Z,5.26
2018-12-31T03:44:38.367Z,5.28
2018-12-31T03:47:06.831Z,5.30
2018-12-31T03:49:35.354Z,5.32
2018-12-31T03:52:03.966Z,5.31
2018-12-31T03:54:32.411Z,5.28
2018-12-31T03:57:00.839Z,5.28
2018-12-31T03:59:29.653Z,5.31
2018-12-31T04:01:58.145Z,5.33
2018-12-31T04:04:26.767Z,5.35
2018-12-31T04:06:55.515Z,5.36
2018-12-31T04:09:23.916Z,5.34
2018-12-31T04:11:52.354Z,5.32
2018-12-31T04:14:20.813Z,5.33
2018-12-31T04:16:49.663Z,5.33
2018-12-31T04:19:18.124Z,5.37
2018-12-31T04:21:46.531Z,5.34
2018-12-31T04:24:15.106Z,5.33
2018-12-31T04:26:43.562Z,5.33
2018-12-31T04:29:11.991Z,5.32
2018-12-31T04:31:40.438Z,5.32
2018-12-31T04:34:08.983Z,5.31
2018-12-31T04:36:37.535Z,5.33
2018-12-31T04:39:45.979Z,5.31
2018-12-31T04:42:14.510Z,5.34
2018-12-31T04:44:43.020Z,5.36
2018-12-31T04:47:11.466Z,5.35
2018-12-31T04:49:40.475Z,5.37
2018-12-31T04:52:08.928Z,5.36
2018-12-31T04:54:37.849Z,5.37
2018-12-31T04:57:06.385Z,5.39
2018-12-31T04:59:34.949Z,5.41
2018-12-31T05:02:03.459Z,5.44
2018-12-31T05:04:31.988Z,5.45
2018-12-31T05:07:00.490Z,5.45
2018-12-31T05:09:28.959Z,5.43
2018-12-31T05:11:57.508Z,5.46
2018-12-31T05:14:26.068Z,5.47
2018-12-31T05:16:54.574Z,5.48
2018-12-31T05:19:23.024Z,5.48
2018-12-31T05:21:51.658Z,5.50
2018-12-31T05:24:20.191Z,5.50
2018-12-31T05:26:48.696Z,5.50
2018-12-31T05:29:17.179Z,5.51
2018-12-31T05:31:45.714Z,5.53
2018-12-31T05:34:14.242Z,5.52
2018-12-31T05:36:42.881Z,5.55
2018-12-31T05:39:11.358Z,5.55
2018-12-31T05:41:39.776Z,5.55
2018-12-31T05:44:08.232Z,5.56
2018-12-31T05:46:36.706Z,5.56
2018-12-31T05:49:05.164Z,5.54
2018-12-31T05:51:33.628Z,5.53
2018-12-31T05:54:02.069Z,5.55
2018-12-31T05:56:30.933Z,5.56
2018-12-31T05:58:59.376Z,5.54
2018-12-31T06:01:27.967Z,5.54
2018-12-31T06:03:56.450Z,5.55
2018-12-31T06:06:24.814Z,5.56
2018-12-31T06:08:53.555Z,5.57
2018-12-31T06:11:22.330Z,5.57
2018-12-31T06:13:50.826Z,5.58
2018-12-31T06:16:19.340Z,5.61
2018-12-31T06:18:47.811Z,5.61
2018-12-31T06:21:16.271Z,5.61
2018-12-31T06:23:44.872Z,5.64
2018-12-31T06:26:13.416Z,5.64
2018-12-31T06:28:41.910Z,5.65
2018-12-31T06:31:10.460Z,5.65
2018-12-31T06:33:38.976Z,5.67
2018-12-31T06:36:07.557Z,5.66
2018-12-31T06:38:36.362Z,5.66
2018-12-31T06:41:04.877Z,5.67
2018-12-31T06:43:33.444Z,5.67
2018-12-31T06:46:02.068Z,5.69
2018-12-31T06:48:30.510Z,5.71
2018-12-31T06:50:59.069Z,5.71
2018-12-31T06:53:27.667Z,5.71
2018-12-31T06:55:56.140Z,5.71
2018-12-31T06:58:25.484Z,5.72
2018-12-31T07:00:55.155Z,5.69
2018-12-31T07:03:23.599Z,5.66
2018-12-31T07:05:52.130Z,5.68
2018-12-31T07:08:20.603Z,5.68
2018-12-31T07:10:49.218Z,5.68
2018-12-31T07:13:17.719Z,5.71
2018-12-31T07:15:46.173Z,5.71
2018-12-31T07:20:50.066Z,5.74
2018-12-31T07:23:18.649Z,5.74
2018-12-31T07:25:47.183Z,5.72
2018-12-31T07:28:15.741Z,5.75
2018-12-31T07:30:44.214Z,5.77
2018-12-31T07:33:12.687Z,5.78
2018-12-31T07:35:41.154Z,5.74
2018-12-31T07:38:09.668Z,5.75
2018-12-31T07:40:38.159Z,5.80
2018-12-31T07:43:06.680Z,5.80
2018-12-31T07:45:35.229Z,5.81
2018-12-31T07:48:03.747Z,5.83
2018-12-31T07:50:32.405Z,5.87
2018-12-31T07:53:00.903Z,5.88
2018-12-31T07:55:29.356Z,5.90
2018-12-31T07:57:58.011Z,5.95
2018-12-31T08:00:26.464Z,5.96
2018-12-31T08:02:55.006Z,5.96
2018-12-31T08:05:23.477Z,5.93
2018-12-31T08:07:51.933Z,5.97
2018-12-31T08:10:20.518Z,6.01
2018-12-31T08:12:48.992Z,6.03
2018-12-31T08:15:17.463Z,6.05
2018-12-31T08:17:45.956Z,6.07
2018-12-31T08:20:14.530Z,6.10
2018-12-31T08:22:43.079Z,6.14
2018-12-31T08:25:11.563Z,6.15
2018-12-31T08:27:40.005Z,6.18
2018-12-31T08:30:08.652Z,6.18
2018-12-31T08:32:37.340Z,6.20
2018-12-31T08:35:05.910Z,6.22
2018-12-31T08:37:34.605Z,6.23
2018-12-31T08:40:03.117Z,6.26
2018-12-31T08:42:32.044Z,6.27
2018-12-31T08:45:00.506Z,6.26
2018-12-31T08:47:29.121Z,6.29
2018-12-31T08:49:57.619Z,6.34
2018-12-31T08:52:26.025Z,6.37
2018-12-31T08:54:54.567Z,6.41
2018-12-31T08:57:22.957Z,6.42
2018-12-31T08:59:51.521Z,6.49
2018-12-31T09:02:20.121Z,6.53
2018-12-31T09:04:48.557Z,6.58
2018-12-31T09:07:16.995Z,6.67
2018-12-31T09:09:45.576Z,6.72
2018-12-31T09:12:14.038Z,6.79
2018-12-31T09:14:42.581Z,6.73
2018-12-31T09:17:11.125Z,6.69
2018-12-31T09:19:39.655Z,6.69
2018-12-31T09:22:08.245Z,6.58
2018-12-31T09:24:44.482Z,6.46
2018-12-31T09:27:07.014Z,6.50
2018-12-31T09:29:35.559Z,6.53
2018-12-31T09:32:04.019Z,6.52
2018-12-31T09:34:32.513Z,6.42
2018-12-31T09:37:01.090Z,6.43
2018-12-31T09:39:29.614Z,6.53
2018-12-31T09:41:58.193Z,6.66
2018-12-31T09:44:26.676Z,6.79
2018-12-31T09:46:55.449Z,6.83
2018-12-31T09:49:24.006Z,6.81
2018-12-31T09:51:52.525Z,6.84
2018-12-31T09:54:20.979Z,6.95
2018-12-31T09:56:49.552Z,6.85
2018-12-31T09:59:18.065Z,6.84
2018-12-31T10:01:46.620Z,6.90
2018-12-31T10:04:15.241Z,6.94
2018-12-31T10:06:43.858Z,6.98
2018-12-31T10:09:12.446Z,7.10
2018-12-31T10:11:41.056Z,7.19
2018-12-31T10:14:09.586Z,7.39
2018-12-31T10:16:38.146Z,7.53
2018-12-31T10:19:06.763Z,7.60
2018-12-31T10:21:40.887Z,7.62
2018-12-31T10:24:05.687Z,7.69
2018-12-31T10:26:34.159Z,7.71
2018-12-31T10:29:02.825Z,7.67
2018-12-31T10:31:31.328Z,7.76
2018-12-31T10:33:59.781Z,7.91
2018-12-31T10:36:28.293Z,8.03
2018-12-31T10:38:56.740Z,8.13
2018-12-31T10:41:25.205Z,8.21
2018-12-31T10:43:53.670Z,8.13
2018-12-31T10:46:22.614Z,8.15
2018-12-31T10:48:51.271Z,8.23
2018-12-31T10:51:19.841Z,8.12
2018-12-31T10:53:48.348Z,8.07
2018-12-31T10:56:16.902Z,8.02
2018-12-31T10:58:45.507Z,7.97
2018-12-31T11:01:13.950Z,7.92
2018-12-31T11:03:42.514Z,7.78
2018-12-31T11:06:11.048Z,7.75
2018-12-31T11:08:39.550Z,7.69
2018-12-31T11:11:08.196Z,7.63
2018-12-31T11:13:36.836Z,7.74
2018-12-31T11:16:05.313Z,7.87
2018-12-31T11:18:33.909Z,7.97
2018-12-31T11:21:02.368Z,7.92
2018-12-31T11:23:30.945Z,7.92
2018-12-31T11:25:59.567Z,8.07
2018-12-31T11:28:28.207Z,8.21
2018-12-31T11:30:56.839Z,8.29
2018-12-31T11:33:25.422Z,8.30
2018-12-31T11:35:54.031Z,8.39
2018-12-31T11:38:22.599Z,8.38
2018-12-31T11:40:51.261Z,8.41
2018-12-31T11:43:19.753Z,8.38
2018-12-31T11:45:48.225Z,8.38
2018-12-31T11:48:16.746Z,8.23
2018-12-31T11:50:45.417Z,8.24
2018-12-31T11:53:13.980Z,8.24
2018-12-31T11:55:42.408Z,8.26
2018-12-31T11:58:11.009Z,8.28
2018-12-31T12:00:39.592Z,8.28
2018-12-31T12:03:08.047Z,8.35
2018-12-31T12:05:36.679Z,8.37
2018-12-31T12:08:05.195Z,8.43
2018-12-31T12:10:33.680Z,8.58
2018-12-31T12:13:02.135Z,8.63
2018-12-31T12:15:30.635Z,8.70
2018-12-31T12:18:00.896Z,8.73
2018-12-31T12:20:29.395Z,8.74
2018-12-31T12:22:57.910Z,8.63
2018-12-31T12:25:26.410Z,8.34
2018-12-31T12:27:54.825Z,8.19
2018-12-31T12:30:25.427Z,8.20
2018-12-31T12:35:42.990Z,8.28
2018-12-31T12:38:11.533Z,8.32
2018-12-31T12:40:40.083Z,8.31
2018-12-31T12:43:08.548Z,8.26
2018-12-31T12:48:31.548Z,8.24
2018-12-31T12:50:59.950Z,8.20
2018-12-31T12:53:28.448Z,8.25
2018-12-31T12:55:57.075Z,8.29
2018-12-31T12:58:25.595Z,8.35
2018-12-31T13:00:54.311Z,8.33
2018-12-31T13:03:22.851Z,8.33
2018-12-31T13:05:51.475Z,8.29
2018-12-31T13:08:20.042Z,8.33
2018-12-31T13:10:48.513Z,8.31
2018-12-31T13:13:18.978Z,8.39
2018-12-31T13:15:47.700Z,8.40
2018-12-31T13:18:16.194Z,8.38
2018-12-31T13:20:44.830Z,8.36
2018-12-31T13:23:13.382Z,8.33
2018-12-31T13:25:42.021Z,8.30
2018-12-31T13:28:10.726Z,8.30
2018-12-31T13:30:39.262Z,8.26
2018-12-31T13:33:08.214Z,8.25
2018-12-31T13:35:36.794Z,8.23
2018-12-31T13:38:07.138Z,8.21
2018-12-31T13:40:35.593Z,8.23
2018-12-31T13:43:04.170Z,8.21
2018-12-31T13:45:32.772Z,8.19
2018-12-31T13:48:01.529Z,8.22
2018-12-31T13:50:31.990Z,8.23
2018-12-31T13:53:00.723Z,8.21
2018-12-31T13:55:29.742Z,8.20
2018-12-31T13:57:58.366Z,8.17
2018-12-31T14:00:27.125Z,8.13
2018-12-31T14:05:25.983Z,8.04
2018-12-31T14:07:54.582Z,7.91
2018-12-31T14:10:23.140Z,7.94
2018-12-31T14:12:52.726Z,7.93
2018-12-31T14:15:22.163Z,7.90
2018-12-31T14:17:50.616Z,7.82
2018-12-31T14:20:19.294Z,7.80
2018-12-31T14:22:47.931Z,7.76
2018-12-31T14:25:16.610Z,7.74
2018-12-31T14:27:45.710Z,7.73
2018-12-31T14:30:14.257Z,7.66
2018-12-31T14:32:42.855Z,7.70
2018-12-31T14:35:11.626Z,7.66
2018-12-31T14:37:40.271Z,7.63
2018-12-31T14:40:10.688Z,7.53
2018-12-31T14:42:39.472Z,7.52
2018-12-31T14:45:08.205Z,7.46
2018-12-31T14:47:36.696Z,7.46
2018-12-31T14:50:45.183Z,7.48
2018-12-31T14:53:13.773Z,7.42
2018-12-31T14:55:42.764Z,7.42
2018-12-31T14:58:13.224Z,7.38
2018-12-31T15:00:42.101Z,7.37
2018-12-31T15:03:10.691Z,7.34
2018-12-31T15:05:39.261Z,7.35
2018-12-31T15:08:27.214Z,7.32
2018-12-31T15:10:55.698Z,7.25
2018-12-31T15:13:24.292Z,7.23
2018-12-31T15:15:52.830Z,7.20
2018-12-31T15:18:21.485Z,7.18
2018-12-31T15:20:49.963Z,7.19
2018-12-31T15:23:18.538Z,7.16
2018-12-31T15:25:47.483Z,7.13
2018-12-31T15:28:16.115Z,7.13
2018-12-31T15:30:44.668Z,7.11
2018-12-31T15:33:54.830Z,7.10
2018-12-31T15:36:23.359Z,7.08
2018-12-31T15:38:53.610Z,7.06
2018-12-31T15:41:22.174Z,7.01
2018-12-31T15:43:50.689Z,7.00
2018-12-31T15:46:20.427Z,6.93
2018-12-31T15:48:49.541Z,6.90
2018-12-31T15:51:17.931Z,6.91
2018-12-31T15:53:46.522Z,6.93
2018-12-31T15:56:15.020Z,6.99
2018-12-31T15:58:43.468Z,6.97
2018-12-31T16:01:11.981Z,6.98
2018-12-31T16:03:42.301Z,6.99
2018-12-31T16:06:11.150Z,7.01
2018-12-31T16:08:39.687Z,7.07
2018-12-31T16:11:08.324Z,7.09
2018-12-31T16:13:36.931Z,7.04
2018-12-31T16:16:07.226Z,7.01
2018-12-31T16:18:35.727Z,7.00
2018-12-31T16:21:05.855Z,7.01
2018-12-31T16:23:34.436Z,7.06
2018-12-31T16:26:02.981Z,7.09
2018-12-31T16:28:33.736Z,7.08
2018-12-31T16:31:42.508Z,7.07
2018-12-31T16:34:12.990Z,7.06
2018-12-31T16:36:41.616Z,7.03
2018-12-31T16:39:10.348Z,7.05
2018-12-31T16:42:18.854Z,6.92
2018-12-31T16:44:47.393Z,6.91
2018-12-31T16:47:15.924Z,6.87
2018-12-31T16:52:33.964Z,6.85
2018-12-31T16:55:02.512Z,6.90
2018-12-31T16:57:31.293Z,6.91
2018-12-31T16:59:59.803Z,6.93
2018-12-31T17:02:28.815Z,6.93
2018-12-31T17:05:37.247Z,6.92
2018-12-31T17:08:06.312Z,6.92
2018-12-31T17:10:34.930Z,6.90
2018-12-31T17:13:03.516Z,6.87
2018-12-31T17:15:32.155Z,6.90
2018-12-31T17:18:00.722Z,6.94
2018-12-31T17:20:29.362Z,6.98
2018-12-31T17:22:57.891Z,6.97
2018-12-31T17:25:26.497Z,6.98
2018-12-31T17:27:55.279Z,6.96
2018-12-31T17:30:23.792Z,6.96
2018-12-31T17:32:52.356Z,6.98
2018-12-31T17:35:20.913Z,6.95
2018-12-31T17:37:49.454Z,6.94
2018-12-31T17:40:18.161Z,6.94
2018-12-31T17:42:46.616Z,6.93
2018-12-31T17:45:22.789Z,6.94
2018-12-31T17:47:45.375Z,6.91
2018-12-31T17:50:13.946Z,6.91
2018-12-31T17:52:42.490Z,6.85
2018-12-31T17:55:11.064Z,6.89
2018-12-31T17:57:39.938Z,6.83
2018-12-31T18:00:50.219Z,6.83
2018-12-31T18:03:18.759Z,6.87
2018-12-31T18:05:49.014Z,6.88
2018-12-31T18:08:17.412Z,6.84
2018-12-31T18:10:45.859Z,6.81
2018-12-31T18:13:14.487Z,6.87
2018-12-31T18:15:43.329Z,6.91
2018-12-31T18:18:12.124Z,6.91
2018-12-31T18:20:40.942Z,6.93
2018-12-31T18:23:09.515Z,6.92
2018-12-31T18:25:37.984Z,6.93
2018-12-31T18:28:06.632Z,6.94
2018-12-31T18:30:35.244Z,7.00
2018-12-31T18:33:03.822Z,6.95
2018-12-31T18:35:32.202Z,6.99
2018-12-31T18:38:01.114Z,6.99
2018-12-31T18:40:29.671Z,7.05
2018-12-31T18:42:58.097Z,7.01
2018-12-31T18:45:26.600Z,7.04
2018-12-31T18:47:55.141Z,7.01
2018-12-31T18:50:23.627Z,7.05
2018-12-31T18:52:52.176Z,7.01
2018-12-31T18:55:20.790Z,7.00
2018-12-31T18:57:51.349Z,7.09
2018-12-31T19:00:20.214Z,7.11
2018-12-31T19:02:48.998Z,7.04
2018-12-31T19:05:17.503Z,7.06
2018-12-31T19:07:46.047Z,7.09
2018-12-31T19:10:16.357Z,7.09
2018-12-31T19:12:44.903Z,7.11
2018-12-31T19:15:13.314Z,7.13
2018-12-31T19:17:42.222Z,7.14
2018-12-31T19:20:11.147Z,7.10
2018-12-31T19:22:39.690Z,7.11
2018-12-31T19:25:08.263Z,7.11
2018-12-31T19:27:37.205Z,7.09
2018-12-31T19:30:45.631Z,7.08
2018-12-31T19:33:14.128Z,7.10
2018-12-31T19:36:01.930Z,7.14
2018-12-31T19:38:30.463Z,7.12
2018-12-31T19:40:58.947Z,7.13
2018-12-31T19:43:27.497Z,7.12
2018-12-31T19:45:56.488Z,7.16
2018-12-31T19:48:24.954Z,7.19
2018-12-31T19:51:01.160Z,7.21
2018-12-31T19:53:29.588Z,7.19
2018-12-31T19:55:58.260Z,7.22
2018-12-31T19:58:26.983Z,7.24
2018-12-31T20:00:55.626Z,7.27
2018-12-31T20:03:24.269Z,7.33
2018-12-31T20:05:52.787Z,7.36
2018-12-31T20:08:21.375Z,7.29
2018-12-31T20:10:49.955Z,7.26
2018-12-31T20:13:18.603Z,7.29
2018-12-31T20:15:48.713Z,7.32
2018-12-31T20:18:17.496Z,7.32
2018-12-31T20:20:46.062Z,7.33
2018-12-31T20:23:14.591Z,7.33
2018-12-31T20:25:43.299Z,7.35
2018-12-31T20:28:12.148Z,7.36
2018-12-31T20:30:42.313Z,7.35
2018-12-31T20:33:10.854Z,7.39
2018-12-31T20:35:39.302Z,7.39
2018-12-31T20:38:07.843Z,7.41
2018-12-31T20:40:36.312Z,7.42
2018-12-31T20:43:04.843Z,7.43
2018-12-31T20:45:35.026Z,7.43
2018-12-31T20:48:03.517Z,7.47
2018-12-31T20:50:31.882Z,7.50
2018-12-31T20:53:00.471Z,7.52
2018-12-31T20:55:29.255Z,7.52
2018-12-31T20:57:57.705Z,7.51
2018-12-31T21:00:26.261Z,7.55
2018-12-31T21:02:54.791Z,7.57
2018-12-31T21:05:23.364Z,7.57
2018-12-31T21:07:51.836Z,7.59
2018-12-31T21:10:20.295Z,7.64
2018-12-31T21:12:48.953Z,7.70
2018-12-31T21:15:17.492Z,7.71
2018-12-31T21:17:46.052Z,7.74
2018-12-31T21:20:14.665Z,7.77
2018-12-31T21:22:43.169Z,7.79
2018-12-31T21:25:13.344Z,7.80
2018-12-31T21:27:41.797Z,7.84
2018-12-31T21:30:50.263Z,7.84
2018-12-31T21:33:18.841Z,7.84
2018-12-31T21:35:47.661Z,7.84
2018-12-31T21:38:16.464Z,7.82
2018-12-31T21:40:44.902Z,7.82
2018-12-31T21:43:13.500Z,7.84
2018-12-31T21:45:42.142Z,7.82
2018-12-31T21:48:10.670Z,7.83
2018-12-31T21:50:39.240Z,7.85
2018-12-31T21:53:07.876Z,7.88
2018-12-31T21:55:36.428Z,7.88
2018-12-31T21:58:05.455Z,7.91
2018-12-31T22:00:33.867Z,7.91
2018-12-31T22:03:02.757Z,7.89
2018-12-31T22:05:31.346Z,7.88
2018-12-31T22:07:59.818Z,7.94
2018-12-31T22:10:28.291Z,8.01
2018-12-31T22:12:56.776Z,8.01
2018-12-31T22:15:25.225Z,7.99
2018-12-31T22:17:54.019Z,8.00
2018-12-31T22:20:22.595Z,7.96
2018-12-31T22:22:51.150Z,7.98
2018-12-31T22:25:21.353Z,7.95
2018-12-31T22:27:49.908Z,8.03
2018-12-31T22:30:18.273Z,8.07
2018-12-31T22:32:46.855Z,8.06
2018-12-31T22:35:15.400Z,8.02
2018-12-31T22:37:45.560Z,8.00
2018-12-31T22:40:14.134Z,7.99
2018-12-31T22:42:42.646Z,7.96
2018-12-31T22:45:11.227Z,8.07
2018-12-31T22:47:39.680Z,8.08
2018-12-31T22:50:48.123Z,8.09
2018-12-31T22:53:16.667Z,8.01
2018-12-31T22:55:45.268Z,8.02
2018-12-31T22:58:13.725Z,8.01
2018-12-31T23:03:21.275Z,8.06
2018-12-31T23:06:09.388Z,8.25
2018-12-31T23:08:38.117Z,8.44
2018-12-31T23:11:06.778Z,8.54
2018-12-31T23:13:35.413Z,8.63
2018-12-31T23:16:03.972Z,8.67
2018-12-31T23:18:32.517Z,8.70
2018-12-31T23:21:01.464Z,8.74
2018-12-31T23:23:30.011Z,8.90
2018-12-31T23:25:58.937Z,9.00
2018-12-31T23:28:27.590Z,9.03
2018-12-31T23:30:57.856Z,9.11
2018-12-31T23:33:26.842Z,9.03
2018-12-31T23:35:55.480Z,8.96
2018-12-31T23:38:24.038Z,8.81
2018-12-31T23:40:52.620Z,8.67
2018-12-31T23:43:22.826Z,8.62
2018-12-31T23:45:51.434Z,8.59
2018-12-31T23:48:19.943Z,8.56
2018-12-31T23:50:48.353Z,8.53
2018-12-31T23:53:16.755Z,8.53
2018-12-31T23:55:45.263Z,8.55
2018-12-31T23:58:13.722Z,8.59
